createdAt,value
2022-07-30T00:01:35.948Z,100945.44
2022-07-30T00:04:05.273Z,100941.71
2022-07-30T00:06:34.056Z,100941.92
2022-07-30T00:09:02.660Z,100941.86
2022-07-30T00:11:31.107Z,100940.01
2022-07-30T00:13:59.605Z,100933.58
2022-07-30T00:16:28.970Z,100929.27
2022-07-30T00:18:57.595Z,100932.09
2022-07-30T00:21:36.286Z,100932.28
2022-07-30T00:24:08.907Z,100933.18
2022-07-30T00:26:37.686Z,100934.16
2022-07-30T00:29:07.035Z,100937.92
2022-07-30T00:31:36.189Z,100937.08
2022-07-30T00:34:05.183Z,100936.29
2022-07-30T00:36:33.668Z,100935.08
2022-07-30T00:39:02.680Z,100934.25
2022-07-30T00:41:31.243Z,100935.30
2022-07-30T00:43:59.932Z,100934.73
2022-07-30T00:46:29.129Z,100936.91
2022-07-30T00:48:57.875Z,100933.81
2022-07-30T00:51:26.407Z,100928.77
2022-07-30T00:53:55.090Z,100928.06
2022-07-30T00:56:23.881Z,100927.11
2022-07-30T00:58:52.360Z,100931.40
2022-07-30T01:01:21.635Z,100931.11
2022-07-30T01:03:50.555Z,100935.90
2022-07-30T01:06:19.344Z,100939.27
2022-07-30T01:08:47.826Z,100942.23
2022-07-30T01:11:17.051Z,100941.88
2022-07-30T01:13:46.125Z,100942.33
2022-07-30T01:16:15.399Z,100939.16
2022-07-30T01:19:05.106Z,100939.27
2022-07-30T01:21:40.037Z,100938.32
2022-07-30T01:24:24.496Z,100938.69
2022-07-30T01:26:54.596Z,100944.89
2022-07-30T01:29:25.341Z,100942.06
2022-07-30T01:32:00.460Z,100940.02
2022-07-30T01:34:36.755Z,100941.22
2022-07-30T01:37:09.354Z,100934.88
2022-07-30T01:39:40.052Z,100936.55
2022-07-30T01:42:12.345Z,100931.74
2022-07-30T01:44:42.849Z,100934.40
2022-07-30T01:47:13.223Z,100938.33
2022-07-30T01:49:43.483Z,100937.06
2022-07-30T01:52:12.627Z,100930.61
2022-07-30T01:54:44.483Z,100931.16
2022-07-30T01:57:16.034Z,100930.91
2022-07-30T01:59:48.138Z,100931.31
2022-07-30T02:02:18.248Z,100926.48
2022-07-30T02:04:48.036Z,100923.86
2022-07-30T02:07:34.490Z,100921.55
2022-07-30T02:10:19.717Z,100919.51
2022-07-30T02:12:56.595Z,100919.58
2022-07-30T02:15:33.055Z,100918.34
2022-07-30T02:18:08.315Z,100917.84
2022-07-30T02:20:38.491Z,100913.34
2022-07-30T02:23:11.687Z,100910.92
2022-07-30T02:25:46.896Z,100910.97
2022-07-30T02:28:17.554Z,100912.30
2022-07-30T02:30:55.358Z,100911.99
2022-07-30T02:33:27.867Z,100906.16
2022-07-30T02:35:58.849Z,100906.65
2022-07-30T02:38:30.265Z,100906.41
2022-07-30T02:41:02.045Z,100907.46
2022-07-30T02:43:35.537Z,100910.17
2022-07-30T02:46:07.631Z,100907.59
2022-07-30T02:49:11.163Z,100909.26
2022-07-30T02:51:41.642Z,100910.23
2022-07-30T02:54:12.614Z,100902.48
2022-07-30T02:56:42.796Z,100904.92
2022-07-30T02:59:12.910Z,100899.11
2022-07-30T03:01:44.330Z,100899.84
2022-07-30T03:04:14.336Z,100899.90
2022-07-30T03:06:45.834Z,100903.46
2022-07-30T03:09:17.055Z,100904.08
2022-07-30T03:11:47.976Z,100907.40
2022-07-30T03:14:16.715Z,100911.32
2022-07-30T03:16:51.182Z,100914.43
2022-07-30T03:19:23.181Z,100918.98
2022-07-30T03:21:55.773Z,100918.11
2022-07-30T03:24:25.996Z,100920.92
2022-07-30T03:26:57.307Z,100922.48
2022-07-30T03:29:28.148Z,100919.95
2022-07-30T03:31:58.283Z,100919.70
2022-07-30T03:34:29.825Z,100917.54
2022-07-30T03:36:59.554Z,100922.84
2022-07-30T03:39:29.758Z,100917.10
2022-07-30T03:41:58.584Z,100917.05
2022-07-30T03:44:27.886Z,100918.20
2022-07-30T03:46:58.284Z,100920.35
2022-07-30T03:49:28.433Z,100920.95
2022-07-30T03:51:57.841Z,100919.50
2022-07-30T03:54:27.863Z,100917.34
2022-07-30T03:57:17.619Z,100918.14
2022-07-30T03:59:51.912Z,100916.41
2022-07-30T04:02:21.570Z,100911.14
2022-07-30T04:05:04.320Z,100906.13
2022-07-30T04:07:33.281Z,100901.39
2022-07-30T04:10:02.379Z,100901.89
2022-07-30T04:12:51.441Z,100903.83
2022-07-30T04:16:05.111Z,100903.96
2022-07-30T04:18:12.020Z,100906.90
2022-07-30T04:20:42.083Z,100904.53
2022-07-30T04:23:12.464Z,100904.66
2022-07-30T04:25:43.780Z,100902.55
2022-07-30T04:28:14.349Z,100903.26
2022-07-30T04:30:43.283Z,100905.33
2022-07-30T04:33:11.971Z,100909.38
2022-07-30T04:35:51.036Z,100911.46
2022-07-30T04:38:34.841Z,100908.94
2022-07-30T04:41:03.853Z,100910.64
2022-07-30T04:43:41.328Z,100909.06
2022-07-30T04:46:10.453Z,100910.02
2022-07-30T04:48:39.153Z,100905.33
2022-07-30T04:51:23.605Z,100902.98
2022-07-30T04:53:55.123Z,100902.39
2022-07-30T04:56:26.101Z,100901.39
2022-07-30T04:58:56.597Z,100897.77
2022-07-30T05:01:37.175Z,100895.56
2022-07-30T05:04:11.773Z,100896.83
2022-07-30T05:06:43.239Z,100897.42
2022-07-30T05:09:15.103Z,100900.36
2022-07-30T05:11:53.822Z,100899.87
2022-07-30T05:14:23.613Z,100900.20
2022-07-30T05:16:53.718Z,100901.16
2022-07-30T05:19:24.086Z,100901.97
2022-07-30T05:21:53.009Z,100899.85
2022-07-30T05:24:22.484Z,100905.33
2022-07-30T05:26:58.052Z,100903.24
2022-07-30T05:29:27.641Z,100908.02
2022-07-30T05:32:03.330Z,100903.66
2022-07-30T05:34:33.926Z,100903.88
2022-07-30T05:37:02.832Z,100902.77
2022-07-30T05:39:33.061Z,100903.91
2022-07-30T05:42:20.877Z,100909.42
2022-07-30T05:44:52.841Z,100911.23
2022-07-30T05:47:22.735Z,100909.31
2022-07-30T05:49:53.699Z,100911.55
2022-07-30T05:52:22.227Z,100906.48
2022-07-30T05:54:50.766Z,100905.09
2022-07-30T05:57:38.808Z,100907.31
2022-07-30T06:00:08.069Z,100907.74
2022-07-30T06:02:46.115Z,100908.61
2022-07-30T06:05:27.402Z,100913.71
2022-07-30T06:07:58.237Z,100912.36
2022-07-30T06:10:27.539Z,100911.17
2022-07-30T06:12:56.123Z,100916.31
2022-07-30T06:15:26.284Z,100915.67
2022-07-30T06:18:01.397Z,100921.80
2022-07-30T06:20:52.447Z,100921.12
2022-07-30T06:23:27.636Z,100920.17
2022-07-30T06:26:22.436Z,100916.27
2022-07-30T06:28:51.327Z,100916.29
2022-07-30T06:31:28.330Z,100908.41
2022-07-30T06:33:57.099Z,100907.55
2022-07-30T06:36:27.017Z,100903.41
2022-07-30T06:39:08.311Z,100900.17
2022-07-30T06:41:59.416Z,100901.12
2022-07-30T06:44:44.589Z,100896.84
2022-07-30T06:47:29.699Z,100896.88
2022-07-30T06:50:01.377Z,100889.82
2022-07-30T06:52:30.311Z,100890.23
2022-07-30T06:54:59.512Z,100887.36
2022-07-30T06:57:37.557Z,100887.87
2022-07-30T07:00:16.238Z,100889.75
2022-07-30T07:02:48.001Z,100887.77
2022-07-30T07:05:21.603Z,100886.67
2022-07-30T07:07:58.670Z,100881.70
2022-07-30T07:10:30.855Z,100876.34
2022-07-30T07:13:15.445Z,100875.23
2022-07-30T07:15:44.309Z,100877.25
2022-07-30T07:18:16.898Z,100879.05
2022-07-30T07:20:52.332Z,100878.15
2022-07-30T07:23:21.019Z,100880.58
2022-07-30T07:25:51.245Z,100881.61
2022-07-30T07:28:20.193Z,100880.96
2022-07-30T07:30:49.411Z,100874.00
2022-07-30T07:33:18.738Z,100870.65
2022-07-30T07:35:49.423Z,100873.30
2022-07-30T07:38:31.371Z,100875.93
2022-07-30T07:41:00.674Z,100868.14
2022-07-30T07:43:29.982Z,100868.52
2022-07-30T07:46:00.294Z,100864.95
2022-07-30T07:48:31.753Z,100862.18
2022-07-30T07:51:11.401Z,100863.46
2022-07-30T07:53:40.012Z,100859.54
2022-07-30T07:56:08.978Z,100856.08
2022-07-30T07:58:38.255Z,100855.71
2022-07-30T08:01:10.591Z,100856.04
2022-07-30T08:04:10.151Z,100854.70
2022-07-30T08:06:58.633Z,100850.58
2022-07-30T08:09:46.658Z,100847.73
2022-07-30T08:12:38.353Z,100846.36
2022-07-30T08:15:26.015Z,100841.26
2022-07-30T08:17:54.909Z,100843.14
2022-07-30T08:20:43.873Z,100834.65
2022-07-30T08:23:13.618Z,100831.92
2022-07-30T08:25:42.168Z,100831.45
2022-07-30T08:28:35.160Z,100830.56
2022-07-30T08:31:02.143Z,100830.30
2022-07-30T08:33:31.886Z,100829.34
2022-07-30T08:36:09.119Z,100829.85
2022-07-30T08:38:39.614Z,100830.77
2022-07-30T08:41:09.007Z,100830.67
2022-07-30T08:43:37.748Z,100834.43
2022-07-30T08:46:10.813Z,100831.59
2022-07-30T08:48:57.365Z,100833.19
2022-07-30T08:51:26.808Z,100828.46
2022-07-30T08:54:14.385Z,100827.20
2022-07-30T08:56:43.744Z,100828.73
2022-07-30T08:59:12.833Z,100827.13
2022-07-30T09:01:41.416Z,100819.51
2022-07-30T09:04:10.225Z,100821.35
2022-07-30T09:06:41.158Z,100820.83
2022-07-30T09:09:12.187Z,100816.58
2022-07-30T09:11:42.613Z,100813.70
2022-07-30T09:14:13.859Z,100809.36
2022-07-30T09:16:45.172Z,100802.96
2022-07-30T09:19:20.172Z,100800.63
2022-07-30T09:22:00.186Z,100793.30
2022-07-30T09:25:04.936Z,100798.01
2022-07-30T09:28:16.450Z,100790.71
2022-07-30T09:31:11.431Z,100787.52
2022-07-30T09:33:58.548Z,100780.76
2022-07-30T09:36:46.588Z,100779.74
2022-07-30T09:39:39.381Z,100777.88
2022-07-30T09:42:29.031Z,100771.80
2022-07-30T09:45:26.080Z,100769.05
2022-07-30T09:48:20.674Z,100760.98
2022-07-30T09:50:50.545Z,100761.73
2022-07-30T09:53:22.756Z,100756.76
2022-07-30T09:55:51.988Z,100759.48
2022-07-30T09:58:27.400Z,100749.44
2022-07-30T10:01:01.416Z,100745.44
2022-07-30T10:03:53.142Z,100753.40
2022-07-30T10:06:48.370Z,100742.92
2022-07-30T10:09:33.627Z,100741.74
2022-07-30T10:12:10.488Z,100734.98
2022-07-30T10:14:45.648Z,100735.84
2022-07-30T10:17:17.361Z,100730.23
2022-07-30T10:20:09.075Z,100729.52
2022-07-30T10:22:56.726Z,100729.89
2022-07-30T10:25:27.869Z,100729.81
2022-07-30T10:28:16.561Z,100725.08
2022-07-30T10:30:45.769Z,100719.36
2022-07-30T10:33:34.739Z,100712.91
2022-07-30T10:36:04.271Z,100710.16
2022-07-30T10:38:41.130Z,100706.90
2022-07-30T10:41:54.284Z,100699.06
2022-07-30T10:44:59.079Z,100695.64
2022-07-30T10:47:33.447Z,100695.48
2022-07-30T10:50:07.908Z,100694.77
2022-07-30T10:52:44.294Z,100689.71
2022-07-30T10:55:15.767Z,100684.54
2022-07-30T10:58:06.371Z,100681.02
2022-07-30T11:00:56.736Z,100681.19
2022-07-30T11:03:41.250Z,100680.55
2022-07-30T11:06:16.441Z,100674.97
2022-07-30T11:08:57.346Z,100674.29
2022-07-30T11:12:01.978Z,100676.71
2022-07-30T11:14:20.531Z,100671.80
2022-07-30T11:16:51.639Z,100668.21
2022-07-30T11:19:56.746Z,100666.30
2022-07-30T11:22:29.883Z,100666.35
2022-07-30T11:24:58.867Z,100660.48
2022-07-30T11:27:50.698Z,100660.00
2022-07-30T11:30:23.471Z,100655.96
2022-07-30T11:32:54.074Z,100646.34
2022-07-30T11:35:35.122Z,100640.69
2022-07-30T11:38:09.920Z,100641.36
2022-07-30T11:41:03.290Z,100636.54
2022-07-30T11:43:37.092Z,100638.45
2022-07-30T11:46:29.709Z,100629.27
2022-07-30T11:49:08.972Z,100618.70
2022-07-30T11:51:46.065Z,100619.09
2022-07-30T11:54:15.367Z,100616.27
2022-07-30T11:56:51.221Z,100615.02
2022-07-30T11:59:20.168Z,100607.88
2022-07-30T12:01:54.083Z,100601.45
2022-07-30T12:04:24.650Z,100601.84
2022-07-30T12:06:53.550Z,100598.73
2022-07-30T12:09:27.547Z,100590.70
2022-07-30T12:11:58.193Z,100584.59
2022-07-30T12:14:36.711Z,100580.84
2022-07-30T12:17:05.695Z,100579.91
2022-07-30T12:19:47.509Z,100576.58
2022-07-30T12:22:17.317Z,100567.73
2022-07-30T12:24:45.900Z,100563.34
2022-07-30T12:27:14.587Z,100560.92
2022-07-30T12:29:43.071Z,100554.34
2022-07-30T12:32:11.658Z,100552.05
2022-07-30T12:34:40.195Z,100551.66
2022-07-30T12:37:10.565Z,100540.85
2022-07-30T12:39:40.415Z,100542.76
2022-07-30T12:42:19.225Z,100543.17
2022-07-30T12:44:49.591Z,100542.78
2022-07-30T12:47:29.893Z,100539.45
2022-07-30T12:50:00.888Z,100531.45
2022-07-30T12:52:35.584Z,100528.80
2022-07-30T12:55:12.705Z,100521.42
2022-07-30T12:57:59.334Z,100519.69
2022-07-30T13:00:32.211Z,100511.55
2022-07-30T13:03:00.930Z,100510.52
2022-07-30T13:05:50.576Z,100504.75
2022-07-30T13:08:19.093Z,100503.41
2022-07-30T13:11:02.115Z,100502.66
2022-07-30T13:13:33.038Z,100492.30
2022-07-30T13:16:04.099Z,100485.34
2022-07-30T13:18:34.247Z,100484.79
2022-07-30T13:21:04.625Z,100479.42
2022-07-30T13:23:33.132Z,100481.48
2022-07-30T13:26:02.331Z,100470.46
2022-07-30T13:28:32.441Z,100467.00
2022-07-30T13:31:02.474Z,100461.17
2022-07-30T13:33:31.327Z,100455.14
2022-07-30T13:35:59.845Z,100450.04
2022-07-30T13:38:28.743Z,100442.64
2022-07-30T13:41:02.208Z,100442.01
2022-07-30T13:43:33.754Z,100446.48
2022-07-30T13:46:04.937Z,100448.67
2022-07-30T13:48:34.037Z,100438.30
2022-07-30T13:51:03.865Z,100433.14
2022-07-30T13:53:32.746Z,100428.69
2022-07-30T13:56:01.429Z,100428.96
2022-07-30T13:58:35.498Z,100429.39
2022-07-30T14:01:07.523Z,100425.86
2022-07-30T14:03:36.301Z,100423.91
2022-07-30T14:06:10.645Z,100419.31
2022-07-30T14:08:40.334Z,100414.92
2022-07-30T14:11:08.916Z,100415.48
2022-07-30T14:13:38.108Z,100411.02
2022-07-30T14:16:22.583Z,100404.20
2022-07-30T14:18:57.768Z,100403.00
2022-07-30T14:21:26.660Z,100398.30
2022-07-30T14:23:55.603Z,100396.17
2022-07-30T14:26:24.081Z,100395.88
2022-07-30T14:28:52.665Z,100388.73
2022-07-30T14:31:21.228Z,100381.27
2022-07-30T14:33:49.628Z,100386.26
2022-07-30T14:36:18.726Z,100389.33
2022-07-30T14:38:47.414Z,100385.88
2022-07-30T14:41:15.898Z,100380.60
2022-07-30T14:43:44.684Z,100372.91
2022-07-30T14:46:13.471Z,100370.07
2022-07-30T14:48:42.443Z,100367.66
2022-07-30T14:51:17.739Z,100367.55
2022-07-30T14:53:50.878Z,100364.83
2022-07-30T14:56:19.785Z,100364.11
2022-07-30T14:58:48.278Z,100374.83
2022-07-30T15:01:17.267Z,100373.95
2022-07-30T15:03:46.805Z,100375.85
2022-07-30T15:06:15.986Z,100374.37
2022-07-30T15:08:46.242Z,100373.21
2022-07-30T15:11:15.257Z,100371.23
2022-07-30T15:13:50.470Z,100374.25
2022-07-30T15:16:20.282Z,100377.43
2022-07-30T15:18:48.797Z,100375.15
2022-07-30T15:21:17.834Z,100375.94
2022-07-30T15:23:46.421Z,100379.38
2022-07-30T15:26:15.003Z,100379.88
2022-07-30T15:28:43.690Z,100383.21
2022-07-30T15:31:12.380Z,100390.45
2022-07-30T15:33:43.314Z,100399.91
2022-07-30T15:36:12.372Z,100394.95
2022-07-30T15:38:41.206Z,100397.04
2022-07-30T15:41:13.507Z,100398.89
2022-07-30T15:43:42.793Z,100399.46
2022-07-30T15:46:11.365Z,100400.22
2022-07-30T15:48:39.918Z,100397.42
2022-07-30T15:51:10.912Z,100402.63
2022-07-30T15:53:39.539Z,100406.44
2022-07-30T15:56:08.467Z,100409.15
2022-07-30T15:58:41.645Z,100410.73
2022-07-30T16:01:12.263Z,100413.46
2022-07-30T16:03:41.087Z,100415.98
2022-07-30T16:06:09.671Z,100411.42
2022-07-30T16:08:38.259Z,100411.74
2022-07-30T16:11:07.248Z,100411.91
2022-07-30T16:13:39.520Z,100411.76
2022-07-30T16:16:08.412Z,100410.84
2022-07-30T16:18:36.854Z,100409.87
2022-07-30T16:21:06.402Z,100410.09
2022-07-30T16:23:36.962Z,100410.58
2022-07-30T16:26:07.873Z,100415.06
2022-07-30T16:28:36.663Z,100409.19
2022-07-30T16:31:05.147Z,100415.52
2022-07-30T16:33:33.732Z,100418.95
2022-07-30T16:36:02.417Z,100415.80
2022-07-30T16:38:31.783Z,100419.21
2022-07-30T16:41:00.310Z,100417.13
2022-07-30T16:43:28.782Z,100416.03
2022-07-30T16:45:57.679Z,100416.56
2022-07-30T16:48:26.864Z,100423.59
2022-07-30T16:50:55.669Z,100414.61
2022-07-30T16:53:24.458Z,100410.05
2022-07-30T16:55:53.249Z,100412.52
2022-07-30T16:58:21.712Z,100409.64
2022-07-30T17:00:57.005Z,100413.26
2022-07-30T17:03:26.477Z,100413.05
2022-07-30T17:05:55.334Z,100412.84
2022-07-30T17:08:25.130Z,100412.87
2022-07-30T17:10:54.792Z,100414.76
2022-07-30T17:13:26.041Z,100417.37
2022-07-30T17:15:54.996Z,100415.27
2022-07-30T17:19:23.524Z,100424.75
2022-07-30T17:25:44.766Z,100425.19
2022-07-30T17:28:13.769Z,100428.69
2022-07-30T17:30:42.350Z,100429.80
2022-07-30T17:33:11.452Z,100432.73
2022-07-30T17:35:40.237Z,100427.15
2022-07-30T17:38:08.716Z,100425.34
2022-07-30T17:40:37.303Z,100423.27
2022-07-30T17:43:07.927Z,100426.02
2022-07-30T17:45:37.612Z,100428.69
2022-07-30T17:48:06.972Z,100433.27
2022-07-30T17:50:36.252Z,100435.30
2022-07-30T17:53:06.235Z,100441.30
2022-07-30T17:55:35.667Z,100440.31
2022-07-30T17:58:05.237Z,100439.18
2022-07-30T18:00:35.641Z,100444.54
2022-07-30T18:03:04.654Z,100443.77
2022-07-30T18:05:50.472Z,100445.04
2022-07-30T18:08:19.199Z,100451.58
2022-07-30T18:10:48.032Z,100450.80
2022-07-30T18:13:26.672Z,100456.01
2022-07-30T18:15:56.490Z,100460.30
2022-07-30T18:18:25.092Z,100456.98
2022-07-30T18:20:53.780Z,100458.98
2022-07-30T18:23:22.791Z,100459.69
2022-07-30T18:25:54.238Z,100461.52
2022-07-30T18:29:23.231Z,100464.59
2022-07-30T18:32:31.552Z,100465.52
2022-07-30T18:35:00.438Z,100463.67
2022-07-30T18:37:41.290Z,100465.78
2022-07-30T18:40:13.690Z,100466.05
2022-07-30T18:42:42.740Z,100469.42
2022-07-30T18:45:15.812Z,100472.48
2022-07-30T18:47:45.341Z,100472.25
2022-07-30T18:50:15.956Z,100469.29
2022-07-30T18:52:45.489Z,100470.27
2022-07-30T18:55:14.382Z,100475.74
2022-07-30T18:57:43.511Z,100476.55
2022-07-30T19:00:34.497Z,100475.42
2022-07-30T19:03:03.677Z,100474.48
2022-07-30T19:05:32.310Z,100480.12
2022-07-30T19:08:00.892Z,100483.86
2022-07-30T19:10:29.783Z,100485.89
2022-07-30T19:12:58.582Z,100486.83
2022-07-30T19:15:27.263Z,100486.08
2022-07-30T19:17:57.221Z,100484.16
2022-07-30T19:20:26.792Z,100480.84
2022-07-30T19:23:07.351Z,100480.16
2022-07-30T19:25:37.291Z,100475.17
2022-07-30T19:28:06.058Z,100474.66
2022-07-30T19:30:35.053Z,100476.73
2022-07-30T19:33:14.745Z,100477.38
2022-07-30T19:35:44.737Z,100473.38
2022-07-30T19:38:21.367Z,100467.96
2022-07-30T19:40:50.802Z,100464.84
2022-07-30T19:43:24.002Z,100460.28
2022-07-30T19:45:53.386Z,100457.89
2022-07-30T19:48:29.203Z,100456.95
2022-07-30T19:51:01.512Z,100457.05
2022-07-30T19:53:34.438Z,100457.36
2022-07-30T19:56:08.275Z,100461.50
2022-07-30T19:58:40.216Z,100464.05
2022-07-30T20:01:11.527Z,100462.10
2022-07-30T20:03:41.180Z,100457.36
2022-07-30T20:06:18.609Z,100454.48
2022-07-30T20:08:49.982Z,100450.54
2022-07-30T20:11:36.375Z,100449.86
2022-07-30T20:14:05.641Z,100451.06
2022-07-30T20:16:36.008Z,100448.70
2022-07-30T20:19:05.823Z,100449.77
2022-07-30T20:21:57.549Z,100452.06
2022-07-30T20:24:25.618Z,100452.93
2022-07-30T20:26:54.311Z,100452.67
2022-07-30T20:29:24.019Z,100450.64
2022-07-30T20:31:53.998Z,100450.50
2022-07-30T20:34:25.944Z,100440.44
2022-07-30T20:36:56.791Z,100443.52
2022-07-30T20:39:26.348Z,100444.98
2022-07-30T20:42:15.006Z,100444.41
2022-07-30T20:44:50.697Z,100442.39
2022-07-30T20:47:38.227Z,100446.07
2022-07-30T20:50:10.083Z,100447.96
2022-07-30T20:52:40.688Z,100447.29
2022-07-30T20:55:14.426Z,100450.04
2022-07-30T20:58:00.440Z,100452.34
2022-07-30T21:00:35.021Z,100454.64
2022-07-30T21:03:04.887Z,100451.88
2022-07-30T21:05:36.063Z,100449.17
2022-07-30T21:08:05.497Z,100452.80
2022-07-30T21:10:36.623Z,100452.57
2022-07-30T21:13:07.632Z,100451.29
2022-07-30T21:15:36.811Z,100459.14
2022-07-30T21:18:14.554Z,100465.16
2022-07-30T21:20:46.021Z,100468.10
2022-07-30T21:23:22.642Z,100475.52
2022-07-30T21:26:00.669Z,100481.35
2022-07-30T21:28:35.369Z,100493.95
2022-07-30T21:31:06.930Z,100506.41
2022-07-30T21:33:39.857Z,100509.67
2022-07-30T21:36:10.530Z,100506.09
2022-07-30T21:38:41.797Z,100494.32
2022-07-30T21:41:14.084Z,100496.73
2022-07-30T21:43:44.957Z,100510.58
2022-07-30T21:46:14.823Z,100516.57
2022-07-30T21:48:43.682Z,100510.94
2022-07-30T21:51:13.741Z,100499.94
2022-07-30T21:53:45.169Z,100497.95
2022-07-30T21:56:16.214Z,100504.60
2022-07-30T21:58:45.471Z,100503.77
2022-07-30T22:01:22.462Z,100494.61
2022-07-30T22:04:02.796Z,100491.44
2022-07-30T22:06:42.893Z,100487.88
2022-07-30T22:09:19.062Z,100487.54
2022-07-30T22:12:09.233Z,100480.61
2022-07-30T22:14:39.548Z,100480.78
2022-07-30T22:17:22.389Z,100478.11
2022-07-30T22:19:52.226Z,100475.23
2022-07-30T22:22:27.041Z,100474.02
2022-07-30T22:24:58.160Z,100473.25
2022-07-30T22:27:39.506Z,100469.48
2022-07-30T22:30:10.240Z,100469.45
2022-07-30T22:32:43.594Z,100464.09
2022-07-30T22:35:16.375Z,100461.44
2022-07-30T22:37:46.167Z,100461.58
2022-07-30T22:40:16.493Z,100455.04
2022-07-30T22:42:46.801Z,100458.61
2022-07-30T22:45:34.108Z,100459.39
2022-07-30T22:48:10.812Z,100467.54
2022-07-30T22:50:40.775Z,100471.21
2022-07-30T22:53:56.659Z,100467.74
2022-07-30T22:55:59.416Z,100469.38
2022-07-30T22:58:29.626Z,100466.50
2022-07-30T23:00:58.216Z,100461.84
2022-07-30T23:03:26.801Z,100461.38
2022-07-30T23:05:57.179Z,100456.91
2022-07-30T23:08:29.468Z,100449.27
2022-07-30T23:11:02.491Z,100447.96
2022-07-30T23:13:31.074Z,100453.66
2022-07-30T23:15:59.657Z,100452.77
2022-07-30T23:18:29.165Z,100454.15
2022-07-30T23:21:00.441Z,100452.78
2022-07-30T23:23:34.069Z,100448.70
2022-07-30T23:26:04.963Z,100452.95
2022-07-30T23:28:34.051Z,100452.95
2022-07-30T23:31:03.825Z,100448.92
2022-07-30T23:33:33.268Z,100445.33
2022-07-30T23:36:05.949Z,100443.89
2022-07-30T23:38:34.907Z,100439.25
2022-07-30T23:41:04.624Z,100436.66
2022-07-30T23:43:36.681Z,100438.56
2022-07-30T23:46:05.307Z,100434.77
2022-07-30T23:48:40.038Z,100429.73
2022-07-30T23:51:08.660Z,100431.52
2022-07-30T23:53:37.248Z,100434.11
2022-07-30T23:56:05.867Z,100435.66
2022-07-30T23:58:34.682Z,100433.88
